createdAt,value
2023-02-17T00:01:20.390Z,11.80
2023-02-17T00:03:48.319Z,10.73
2023-02-17T00:06:17.555Z,11.80
2023-02-17T00:08:45.011Z,11.20
2023-02-17T00:11:12.226Z,11.40
2023-02-17T00:13:39.978Z,11.63
2023-02-17T00:16:12.450Z,10.80
2023-02-17T00:18:39.447Z,11.50
2023-02-17T00:21:20.597Z,11.47
2023-02-17T00:23:48.697Z,11.40
2023-02-17T00:26:17.403Z,11.40
2023-02-17T00:28:45.222Z,11.10
2023-02-17T00:31:17.209Z,11.67
2023-02-17T00:33:44.727Z,11.60
2023-02-17T00:36:14.551Z,11.90
2023-02-17T00:38:41.749Z,11.43
2023-02-17T00:41:08.708Z,10.83
2023-02-17T00:43:35.788Z,10.70
2023-02-17T00:46:04.606Z,11.37
2023-02-17T00:48:32.590Z,11.10
2023-02-17T00:50:59.655Z,11.00
2023-02-17T00:53:26.998Z,10.83
2023-02-17T00:55:53.870Z,11.27
2023-02-17T00:58:20.844Z,10.93
2023-02-17T01:00:47.701Z,11.00
2023-02-17T01:03:14.769Z,11.30
2023-02-17T01:05:47.004Z,11.00
2023-02-17T01:08:15.761Z,11.20
2023-02-17T01:10:44.723Z,11.87
2023-02-17T01:13:13.537Z,11.47
2023-02-17T01:15:42.935Z,11.93
2023-02-17T01:18:12.540Z,11.77
2023-02-17T01:20:40.304Z,11.80
2023-02-17T01:23:08.572Z,11.60
2023-02-17T01:25:44.569Z,11.57
2023-02-17T01:28:17.704Z,11.80
2023-02-17T01:30:44.679Z,11.43
2023-02-17T01:33:13.446Z,11.10
2023-02-17T01:35:40.561Z,11.50
2023-02-17T01:38:07.510Z,11.50
2023-02-17T01:40:34.546Z,11.67
2023-02-17T01:43:01.729Z,10.97
2023-02-17T01:45:33.930Z,11.70
2023-02-17T01:48:15.856Z,11.87
2023-02-17T01:50:57.924Z,11.93
2023-02-17T01:53:45.105Z,11.70
2023-02-17T01:56:14.264Z,12.20
2023-02-17T01:58:45.109Z,12.10
2023-02-17T02:01:12.235Z,12.57
2023-02-17T02:03:40.205Z,12.70
2023-02-17T02:06:11.505Z,11.90
2023-02-17T02:08:48.251Z,12.43
2023-02-17T02:11:15.184Z,12.30
2023-02-17T02:13:42.144Z,12.30
2023-02-17T02:16:37.660Z,12.80
2023-02-17T02:19:31.187Z,12.67
2023-02-17T02:22:22.876Z,12.50
2023-02-17T02:24:58.737Z,12.73
2023-02-17T02:28:05.680Z,12.40
2023-02-17T02:31:08.703Z,12.30
2023-02-17T02:33:57.187Z,11.97
2023-02-17T02:36:45.271Z,12.20
2023-02-17T02:39:21.366Z,11.93
2023-02-17T02:41:59.103Z,11.80
2023-02-17T02:44:26.456Z,12.00
2023-02-17T02:47:01.957Z,11.13
2023-02-17T02:49:30.759Z,11.53
2023-02-17T02:52:06.917Z,11.33
2023-02-17T02:55:00.068Z,11.13
2023-02-17T02:57:40.216Z,11.17
2023-02-17T03:00:25.049Z,11.63
2023-02-17T03:02:59.621Z,11.70
2023-02-17T03:05:34.356Z,11.50
2023-02-17T03:08:08.827Z,11.90
2023-02-17T03:10:36.571Z,11.83
2023-02-17T03:13:03.920Z,11.47
2023-02-17T03:15:35.340Z,11.60
2023-02-17T03:18:03.407Z,11.50
2023-02-17T03:20:40.270Z,12.03
2023-02-17T03:23:08.955Z,11.93
2023-02-17T03:25:35.930Z,11.27
2023-02-17T03:28:04.088Z,11.60
2023-02-17T03:30:31.247Z,11.67
2023-02-17T03:32:58.421Z,11.03
2023-02-17T03:35:25.525Z,11.63
2023-02-17T03:37:52.518Z,11.30
2023-02-17T03:40:19.520Z,11.03
2023-02-17T03:42:46.634Z,11.13
2023-02-17T03:45:13.514Z,11.40
2023-02-17T03:47:40.553Z,11.57
2023-02-17T03:50:08.226Z,11.40
2023-02-17T03:52:35.159Z,10.60
2023-02-17T03:55:02.027Z,11.40
2023-02-17T03:57:29.145Z,11.17
2023-02-17T03:59:55.992Z,11.13
2023-02-17T04:02:23.108Z,11.00
2023-02-17T04:04:50.243Z,10.67
2023-02-17T04:07:17.294Z,10.80
2023-02-17T04:09:44.190Z,11.10
2023-02-17T04:12:11.484Z,11.10
2023-02-17T04:14:38.419Z,11.10
2023-02-17T04:17:05.345Z,11.80
2023-02-17T04:19:32.321Z,11.27
2023-02-17T04:21:59.318Z,11.50
2023-02-17T04:24:26.187Z,11.63
2023-02-17T04:26:53.341Z,11.63
2023-02-17T04:29:20.208Z,11.83
2023-02-17T04:31:47.289Z,11.90
2023-02-17T04:34:14.314Z,11.60
2023-02-17T04:36:43.424Z,12.00
2023-02-17T04:39:11.353Z,12.10
2023-02-17T04:41:38.507Z,11.87
2023-02-17T04:44:05.643Z,11.60
2023-02-17T04:46:32.663Z,11.87
2023-02-17T04:48:59.819Z,11.77
2023-02-17T04:51:26.681Z,12.07
2023-02-17T04:53:53.706Z,12.03
2023-02-17T04:56:20.747Z,11.83
2023-02-17T04:58:47.728Z,12.07
2023-02-17T05:01:14.604Z,12.63
2023-02-17T05:03:42.351Z,12.47
2023-02-17T05:06:09.358Z,12.30
2023-02-17T05:08:36.302Z,12.30
2023-02-17T05:11:03.269Z,12.57
2023-02-17T05:13:30.230Z,12.80
2023-02-17T05:15:57.107Z,12.80
2023-02-17T05:18:24.210Z,12.57
2023-02-17T05:20:52.406Z,12.90
2023-02-17T05:23:19.309Z,12.87
2023-02-17T05:25:46.259Z,12.57
2023-02-17T05:28:13.233Z,12.97
2023-02-17T05:30:40.074Z,13.20
2023-02-17T05:33:07.213Z,13.10
2023-02-17T05:35:35.741Z,12.90
2023-02-17T05:38:02.741Z,13.00
2023-02-17T05:40:29.643Z,12.83
2023-02-17T05:42:56.743Z,12.50
2023-02-17T05:45:23.680Z,12.80
2023-02-17T05:47:50.726Z,11.33
2023-02-17T05:50:17.627Z,11.53
2023-02-17T05:52:44.658Z,12.40
2023-02-17T05:55:11.521Z,11.80
2023-02-17T05:57:38.518Z,12.23
2023-02-17T06:00:06.242Z,12.33
2023-02-17T06:02:38.932Z,12.70
2023-02-17T06:05:06.328Z,12.80
2023-02-17T06:07:33.241Z,12.63
2023-02-17T06:10:00.249Z,12.73
2023-02-17T06:12:27.199Z,12.17
2023-02-17T06:14:54.396Z,12.87
2023-02-17T06:17:21.555Z,12.63
2023-02-17T06:19:48.633Z,12.87
2023-02-17T06:22:17.245Z,12.80
2023-02-17T06:24:45.606Z,12.50
2023-02-17T06:27:12.648Z,12.07
2023-02-17T06:29:39.707Z,12.70
2023-02-17T06:32:07.991Z,12.93
2023-02-17T06:34:34.982Z,12.80
2023-02-17T06:37:01.852Z,12.73
2023-02-17T06:39:28.799Z,12.90
2023-02-17T06:41:55.738Z,12.87
2023-02-17T06:44:22.746Z,12.90
2023-02-17T06:46:50.193Z,12.93
2023-02-17T06:49:17.307Z,12.90
2023-02-17T06:51:44.315Z,12.53
2023-02-17T06:54:11.397Z,12.30
2023-02-17T06:56:38.340Z,12.93
2023-02-17T06:59:05.542Z,12.90
2023-02-17T07:01:32.695Z,12.90
2023-02-17T07:03:59.988Z,13.27
2023-02-17T07:06:27.515Z,13.20
2023-02-17T07:08:54.711Z,13.80
2023-02-17T07:11:21.651Z,13.60
2023-02-17T07:13:48.725Z,13.80
2023-02-17T07:16:16.309Z,13.90
2023-02-17T07:18:43.367Z,13.53
2023-02-17T07:21:10.659Z,13.93
2023-02-17T07:23:39.156Z,13.50
2023-02-17T07:26:11.855Z,13.30
2023-02-17T07:28:40.303Z,13.43
2023-02-17T07:31:13.441Z,13.70
2023-02-17T07:33:41.317Z,13.57
2023-02-17T07:36:10.346Z,13.87
2023-02-17T07:38:38.102Z,13.97
2023-02-17T07:41:11.445Z,14.00
2023-02-17T07:43:38.655Z,13.97
2023-02-17T07:46:10.403Z,13.87
2023-02-17T07:48:37.999Z,13.60
2023-02-17T07:51:14.251Z,13.80
2023-02-17T07:53:41.911Z,14.07
2023-02-17T07:56:11.433Z,13.83
2023-02-17T07:58:40.423Z,13.97
2023-02-17T08:01:11.831Z,13.67
2023-02-17T08:03:39.213Z,13.83
2023-02-17T08:06:19.829Z,13.57
2023-02-17T08:09:06.114Z,13.70
2023-02-17T08:11:52.040Z,13.47
2023-02-17T08:14:21.828Z,13.40
2023-02-17T08:16:48.873Z,13.70
2023-02-17T08:19:15.939Z,13.60
2023-02-17T08:21:43.258Z,13.73
2023-02-17T08:24:10.302Z,13.87
2023-02-17T08:26:37.275Z,13.60
2023-02-17T08:29:05.425Z,13.33
2023-02-17T08:31:35.993Z,13.87
2023-02-17T08:34:06.766Z,13.70
2023-02-17T08:36:34.759Z,13.43
2023-02-17T08:39:02.127Z,13.40
2023-02-17T08:41:32.519Z,13.50
2023-02-17T08:44:02.770Z,12.90
2023-02-17T08:46:30.284Z,13.27
2023-02-17T08:48:57.634Z,12.87
2023-02-17T08:51:26.366Z,13.00
2023-02-17T08:53:56.324Z,13.17
2023-02-17T08:56:24.303Z,13.37
2023-02-17T08:58:51.660Z,13.30
2023-02-17T09:01:19.222Z,12.90
2023-02-17T09:03:48.146Z,13.63
2023-02-17T09:06:15.962Z,12.77
2023-02-17T09:08:43.721Z,13.70
2023-02-17T09:11:11.114Z,13.47
2023-02-17T09:13:38.179Z,12.87
2023-02-17T09:16:05.976Z,13.40
2023-02-17T09:18:33.192Z,13.00
2023-02-17T09:21:05.054Z,11.70
2023-02-17T09:23:32.012Z,13.10
2023-02-17T09:26:05.768Z,13.50
2023-02-17T09:28:34.272Z,12.80
2023-02-17T09:31:22.202Z,13.10
2023-02-17T09:33:50.168Z,12.60
2023-02-17T09:36:26.020Z,12.97
2023-02-17T09:38:53.661Z,12.90
2023-02-17T09:41:38.034Z,12.93
2023-02-17T09:44:18.297Z,13.33
2023-02-17T09:47:01.385Z,13.10
2023-02-17T09:49:45.202Z,13.20
2023-02-17T09:52:27.978Z,13.00
2023-02-17T09:54:55.020Z,12.93
2023-02-17T09:57:27.056Z,12.87
2023-02-17T10:00:14.174Z,13.30
2023-02-17T10:03:07.038Z,13.50
2023-02-17T10:05:40.368Z,13.30
2023-02-17T10:08:21.857Z,13.47
2023-02-17T10:10:55.504Z,13.13
2023-02-17T10:13:27.064Z,13.53
2023-02-17T10:15:58.864Z,12.80
2023-02-17T10:18:39.520Z,12.70
2023-02-17T10:21:42.455Z,12.40
2023-02-17T10:24:10.338Z,13.20
2023-02-17T10:26:49.679Z,12.87
2023-02-17T10:29:50.739Z,12.70
2023-02-17T10:32:26.444Z,13.60
2023-02-17T10:35:16.741Z,13.50
2023-02-17T10:37:48.666Z,13.27
2023-02-17T10:40:22.276Z,13.27
2023-02-17T10:43:00.100Z,13.20
2023-02-17T10:45:42.048Z,13.57
2023-02-17T10:48:38.748Z,13.57
2023-02-17T10:51:06.538Z,12.90
2023-02-17T10:53:36.993Z,12.90
2023-02-17T10:56:14.972Z,12.67
2023-02-17T10:59:06.491Z,12.23
2023-02-17T11:01:33.939Z,11.83
2023-02-17T11:04:03.395Z,12.17
2023-02-17T11:06:31.882Z,12.20
2023-02-17T11:09:04.952Z,12.40
2023-02-17T11:11:35.594Z,11.80
2023-02-17T11:14:45.633Z,12.13
2023-02-17T11:17:23.054Z,11.87
2023-02-17T11:20:05.413Z,12.17
2023-02-17T11:22:41.793Z,12.20
2023-02-17T11:25:22.148Z,12.43
2023-02-17T11:28:00.345Z,12.60
2023-02-17T11:30:29.305Z,12.50
2023-02-17T11:32:56.899Z,12.87
2023-02-17T11:35:28.732Z,13.10
2023-02-17T11:38:15.002Z,12.87
2023-02-17T11:40:51.726Z,12.90
2023-02-17T11:43:19.339Z,14.00
2023-02-17T11:46:19.235Z,13.73
2023-02-17T11:49:20.671Z,13.53
2023-02-17T11:52:09.204Z,12.77
2023-02-17T11:55:00.543Z,12.20
2023-02-17T11:57:51.863Z,13.37
2023-02-17T12:00:23.439Z,12.80
2023-02-17T12:03:05.923Z,12.80
2023-02-17T12:05:48.322Z,12.60
2023-02-17T12:08:40.944Z,12.70
2023-02-17T12:11:10.819Z,12.23
2023-02-17T12:14:11.537Z,12.63
2023-02-17T12:16:55.986Z,12.50
2023-02-17T12:19:37.026Z,12.43
2023-02-17T12:22:22.015Z,12.40
2023-02-17T12:24:55.195Z,12.60
2023-02-17T12:27:50.210Z,11.93
2023-02-17T12:30:47.074Z,12.13
2023-02-17T12:33:23.314Z,11.97
2023-02-17T12:35:57.934Z,11.80
2023-02-17T12:38:32.822Z,11.87
2023-02-17T12:41:16.200Z,11.80
2023-02-17T12:43:58.496Z,11.73
2023-02-17T12:46:39.831Z,12.20
2023-02-17T12:49:32.421Z,11.77
2023-02-17T12:52:11.284Z,12.20
2023-02-17T12:54:50.754Z,12.47
2023-02-17T12:57:27.663Z,11.87
2023-02-17T12:59:55.662Z,12.47
2023-02-17T13:02:25.092Z,12.20
2023-02-17T13:04:58.349Z,12.60
2023-02-17T13:07:41.348Z,11.90
2023-02-17T13:10:28.062Z,11.93
2023-02-17T13:13:28.801Z,12.20
2023-02-17T13:16:11.815Z,12.60
2023-02-17T13:18:41.730Z,12.50
2023-02-17T13:21:32.045Z,12.30
2023-02-17T13:23:59.490Z,11.83
2023-02-17T13:26:28.332Z,12.30
2023-02-17T13:29:33.570Z,12.27
2023-02-17T13:32:03.800Z,11.53
2023-02-17T13:34:38.617Z,12.27
2023-02-17T13:37:32.647Z,11.90
2023-02-17T13:40:16.141Z,12.40
2023-02-17T13:42:45.850Z,12.17
2023-02-17T13:45:30.853Z,12.30
2023-02-17T13:48:01.083Z,12.37
2023-02-17T13:50:32.628Z,12.57
2023-02-17T13:53:00.952Z,12.40
2023-02-17T13:55:28.288Z,12.40
2023-02-17T13:57:59.881Z,12.23
2023-02-17T14:00:33.617Z,12.50
2023-02-17T14:03:27.956Z,12.60
2023-02-17T14:05:58.170Z,12.30
2023-02-17T14:08:38.591Z,12.60
2023-02-17T14:11:12.772Z,12.83
2023-02-17T14:13:42.765Z,12.63
2023-02-17T14:16:27.953Z,12.90
2023-02-17T14:19:11.116Z,12.90
2023-02-17T14:21:43.092Z,13.00
2023-02-17T14:24:37.012Z,13.20
2023-02-17T14:27:08.245Z,12.97
2023-02-17T14:29:53.470Z,12.87
2023-02-17T14:32:28.767Z,13.23
2023-02-17T14:35:12.093Z,12.80
2023-02-17T14:37:40.415Z,12.47
2023-02-17T14:40:16.576Z,12.70
2023-02-17T14:42:44.098Z,13.37
2023-02-17T14:45:10.984Z,13.20
2023-02-17T14:47:38.029Z,13.40
2023-02-17T14:50:05.388Z,13.00
2023-02-17T14:52:32.591Z,13.47
2023-02-17T14:55:00.118Z,12.47
2023-02-17T14:57:28.187Z,12.63
2023-02-17T14:59:57.810Z,12.70
2023-02-17T15:02:24.926Z,12.60
2023-02-17T15:04:51.857Z,13.00
2023-02-17T15:07:19.504Z,12.47
2023-02-17T15:09:48.367Z,12.70
2023-02-17T15:12:22.127Z,12.80
2023-02-17T15:14:49.237Z,13.00
2023-02-17T15:17:16.227Z,12.63
2023-02-17T15:19:44.971Z,12.90
2023-02-17T15:22:15.226Z,12.87
2023-02-17T15:24:42.282Z,13.00
2023-02-17T15:27:14.376Z,12.50
2023-02-17T15:29:41.667Z,12.80
2023-02-17T15:32:21.743Z,12.23
2023-02-17T15:34:48.869Z,12.50
2023-02-17T15:37:15.705Z,12.80
2023-02-17T15:39:42.964Z,11.80
2023-02-17T15:42:13.775Z,12.63
2023-02-17T15:44:48.247Z,12.13
2023-02-17T15:47:18.523Z,11.87
2023-02-17T15:49:46.131Z,11.80
2023-02-17T15:52:14.009Z,11.60
2023-02-17T15:54:42.770Z,11.90
2023-02-17T15:57:22.181Z,11.27
2023-02-17T15:59:50.025Z,12.40
2023-02-17T16:02:22.651Z,11.77
2023-02-17T16:04:49.732Z,11.67
2023-02-17T16:07:16.861Z,11.60
2023-02-17T16:09:43.857Z,11.73
2023-02-17T16:12:27.532Z,11.53
2023-02-17T16:14:55.835Z,11.23
2023-02-17T16:17:22.867Z,11.43
2023-02-17T16:19:49.930Z,11.30
2023-02-17T16:22:16.866Z,11.70
2023-02-17T16:24:43.988Z,11.07
2023-02-17T16:27:15.959Z,11.73
2023-02-17T16:29:43.717Z,11.97
2023-02-17T16:32:12.878Z,11.73
2023-02-17T16:34:40.619Z,11.83
2023-02-17T16:37:15.238Z,12.03
2023-02-17T16:39:43.227Z,11.77
2023-02-17T16:42:12.307Z,11.97
2023-02-17T16:44:39.801Z,12.00
2023-02-17T16:47:17.032Z,12.30
2023-02-17T16:49:47.473Z,12.60
2023-02-17T16:52:25.048Z,13.03
2023-02-17T16:54:54.263Z,12.27
2023-02-17T16:57:21.827Z,12.17
2023-02-17T16:59:48.912Z,11.90
2023-02-17T17:02:15.995Z,12.40
2023-02-17T17:04:43.128Z,12.30
2023-02-17T17:07:13.921Z,11.87
2023-02-17T17:09:41.855Z,11.90
2023-02-17T17:12:11.154Z,12.20
2023-02-17T17:14:38.200Z,11.90
2023-02-17T17:17:05.201Z,12.03
2023-02-17T17:19:32.314Z,12.00
2023-02-17T17:21:59.341Z,11.93
2023-02-17T17:24:26.368Z,12.00
2023-02-17T17:26:53.342Z,12.13
2023-02-17T17:29:20.758Z,11.87
2023-02-17T17:31:48.030Z,11.67
2023-02-17T17:34:15.223Z,11.17
2023-02-17T17:36:44.824Z,11.80
2023-02-17T17:39:23.366Z,11.90
2023-02-17T17:41:51.273Z,11.57
2023-02-17T17:44:19.105Z,10.93
2023-02-17T17:46:46.555Z,12.00
2023-02-17T17:49:15.555Z,11.40
2023-02-17T17:51:43.030Z,11.60
2023-02-17T17:54:10.700Z,11.60
2023-02-17T17:56:42.606Z,10.80
2023-02-17T17:59:11.142Z,11.57
2023-02-17T18:01:38.130Z,12.10
2023-02-17T18:04:07.890Z,11.67
2023-02-17T18:06:42.551Z,11.83
2023-02-17T18:09:25.806Z,11.70
2023-02-17T18:12:01.331Z,11.73
2023-02-17T18:14:29.409Z,12.07
2023-02-17T18:16:57.790Z,11.50
2023-02-17T18:19:24.844Z,11.80
2023-02-17T18:21:51.775Z,11.97
2023-02-17T18:24:18.773Z,11.53
2023-02-17T18:26:45.610Z,11.50
2023-02-17T18:29:12.602Z,11.33
2023-02-17T18:31:39.779Z,11.53
2023-02-17T18:34:07.054Z,11.53
2023-02-17T18:36:33.958Z,11.20
2023-02-17T18:39:01.568Z,11.27
2023-02-17T18:41:30.701Z,11.87
2023-02-17T18:43:59.950Z,11.73
2023-02-17T18:46:27.540Z,11.80
2023-02-17T18:48:56.041Z,11.47
2023-02-17T18:51:24.009Z,11.63
2023-02-17T18:53:51.733Z,10.87
2023-02-17T18:56:22.921Z,11.23
2023-02-17T18:58:51.835Z,11.20
2023-02-17T19:01:24.679Z,10.83
2023-02-17T19:03:52.071Z,10.70
2023-02-17T19:06:22.280Z,10.93
2023-02-17T19:08:50.030Z,10.63
2023-02-17T19:11:18.150Z,10.73
2023-02-17T19:13:45.403Z,11.17
2023-02-17T19:16:16.868Z,11.57
2023-02-17T19:18:46.074Z,10.63
2023-02-17T19:21:13.458Z,10.47
2023-02-17T19:23:40.950Z,10.30
2023-02-17T19:26:09.739Z,10.83
2023-02-17T19:28:38.129Z,10.37
2023-02-17T19:31:10.258Z,10.87
2023-02-17T19:33:37.644Z,10.70
2023-02-17T19:36:14.167Z,11.40
2023-02-17T19:38:41.725Z,11.53
2023-02-17T19:41:10.476Z,10.83
2023-02-17T19:43:37.582Z,10.50
2023-02-17T19:46:05.654Z,10.30
2023-02-17T19:48:33.333Z,10.57
2023-02-17T19:51:02.499Z,10.90
2023-02-17T19:53:31.969Z,11.07
2023-02-17T19:56:14.291Z,11.03
2023-02-17T19:58:43.230Z,10.77
2023-02-17T20:01:12.660Z,10.53
2023-02-17T20:03:40.055Z,10.13
2023-02-17T20:06:09.911Z,10.47
2023-02-17T20:08:37.505Z,10.27
2023-02-17T20:11:09.343Z,10.30
2023-02-17T20:13:45.608Z,10.67
2023-02-17T20:16:15.331Z,10.67
2023-02-17T20:18:44.972Z,10.53
2023-02-17T20:21:15.098Z,10.90
2023-02-17T20:23:42.205Z,11.07
2023-02-17T20:26:13.325Z,12.10
2023-02-17T20:28:40.792Z,10.97
2023-02-17T20:31:08.954Z,11.73
2023-02-17T20:33:36.342Z,10.60
2023-02-17T20:36:05.252Z,11.07
2023-02-17T20:38:33.178Z,11.23
2023-02-17T20:41:00.522Z,11.23
2023-02-17T20:43:27.497Z,10.70
2023-02-17T20:45:55.143Z,11.10
2023-02-17T20:48:27.594Z,10.83
2023-02-17T20:50:56.108Z,10.27
2023-02-17T20:53:23.456Z,10.67
2023-02-17T20:55:51.042Z,10.83
2023-02-17T20:58:18.905Z,10.80
2023-02-17T21:00:47.412Z,11.50
2023-02-17T21:03:14.717Z,11.70
2023-02-17T21:05:41.974Z,11.63
2023-02-17T21:08:09.289Z,10.80
2023-02-17T21:10:36.621Z,11.70
2023-02-17T21:13:03.782Z,11.17
2023-02-17T21:15:30.778Z,11.47
2023-02-17T21:17:57.723Z,11.90
2023-02-17T21:20:24.675Z,11.70
2023-02-17T21:22:51.652Z,11.50
2023-02-17T21:25:18.862Z,11.83
2023-02-17T21:27:45.797Z,11.70
2023-02-17T21:30:13.354Z,11.50
2023-02-17T21:32:41.095Z,11.73
2023-02-17T21:35:11.990Z,11.73
2023-02-17T21:37:40.256Z,11.40
2023-02-17T21:40:08.296Z,11.10
2023-02-17T21:42:55.931Z,10.87
2023-02-17T21:45:23.672Z,11.23
2023-02-17T21:47:51.124Z,10.50
2023-02-17T21:50:19.069Z,10.70
2023-02-17T21:52:45.877Z,10.63
2023-02-17T21:55:12.828Z,10.77
2023-02-17T21:57:39.952Z,10.57
2023-02-17T22:00:08.950Z,10.53
2023-02-17T22:02:39.246Z,10.10
2023-02-17T22:05:07.724Z,10.50
2023-02-17T22:07:34.755Z,10.83
2023-02-17T22:10:02.289Z,10.80
2023-02-17T22:12:29.199Z,10.33
2023-02-17T22:14:56.402Z,10.70
2023-02-17T22:17:23.248Z,10.30
2023-02-17T22:19:50.292Z,10.77
2023-02-17T22:22:17.149Z,10.90
2023-02-17T22:24:44.142Z,11.00
2023-02-17T22:27:11.141Z,10.60
2023-02-17T22:29:38.235Z,10.20
2023-02-17T22:32:05.532Z,10.50
2023-02-17T22:34:32.856Z,10.37
2023-02-17T22:36:59.725Z,10.30
2023-02-17T22:39:26.738Z,10.40
2023-02-17T22:41:53.828Z,10.30
2023-02-17T22:44:20.809Z,10.30
2023-02-17T22:46:47.834Z,10.47
2023-02-17T22:49:14.974Z,10.37
2023-02-17T22:51:42.028Z,10.70
2023-02-17T22:54:09.613Z,11.00
2023-02-17T22:56:37.537Z,11.27
2023-02-17T22:59:05.805Z,11.40
2023-02-17T23:01:34.960Z,11.13
2023-02-17T23:04:02.673Z,11.50
2023-02-17T23:06:35.793Z,11.70
2023-02-17T23:09:05.368Z,11.40
2023-02-17T23:11:50.006Z,11.27
2023-02-17T23:14:22.154Z,11.67
2023-02-17T23:16:49.339Z,11.60
2023-02-17T23:19:19.618Z,10.90
2023-02-17T23:21:49.905Z,11.47
2023-02-17T23:24:18.039Z,11.50
2023-02-17T23:26:45.634Z,11.50
2023-02-17T23:29:12.595Z,11.60
2023-02-17T23:31:39.872Z,11.40
2023-02-17T23:34:07.639Z,11.53
2023-02-17T23:36:34.852Z,11.77
2023-02-17T23:39:02.096Z,11.50
2023-02-17T23:41:29.052Z,11.63
2023-02-17T23:43:56.090Z,11.80
2023-02-17T23:46:23.096Z,11.87
2023-02-17T23:48:50.004Z,12.00
2023-02-17T23:51:19.021Z,11.60
2023-02-17T23:53:46.449Z,12.53
2023-02-17T23:56:13.368Z,11.77
2023-02-17T23:58:40.899Z,12.13
